Check time and date!

LGTT 151100Z 08006KT 9999 FEW025 29/10 Q1015
TAF LGTT 151000Z 1512/1521 04012KT 9999 FEW025 TEMPO 1512/1514 04012G22KT BECMG 1516/1518 VRB03KT
--------------------------------------
LGMG 151100Z 17005G15KT 9999 FEW025 29/14 Q1014
TAF LGMG 151000Z NIL
--------------------------------------
LGTG 151050Z 05004KT 9999 FEW030 29/07 Q1015
--------------------------------------
LGEL 151050Z 19009KT 9999 FEW025 29/13 Q1013
TAF LGEL 151100Z 1512/1612 17010KT 9999 FEW025 BECMG 1517/1519 VRB05KT
--------------------------------------
LGAV 151050Z 06015KT 9999 FEW025 28/09 Q1015 RMK NOSIG
TAF LGAV 151100Z 1512/1612 04017KT 9999 FEW025 BECMG 1516/1518 VRB05KT BECMG 1606/1608 03010KT
--------------------------------------
LGAT 151100Z 20005KT 9999 FEW020 30/13 Q1014
--------------------------------------
METAR LGAD 151050Z 22008KT 9999 SCT020 30/20 Q1015
METAR LGAL 151050Z 05010KT CAVOK 28/08 Q1014
METAR LGAV 151050Z 06015KT 9999 FEW025 28/09 Q1015 NOSIG
METAR LGBL 151050Z 10010KT 9999 FEW030 28/12 Q1015
METAR LGEL 151050Z 19009KT 9999 FEW025 29/13 Q1013
METAR LGHI 151020Z 02011KT CAVOK 26/15 Q1011
METAR LGIO 151050Z VRB03KT 9999 SCT035 27/15 Q1016
METAR LGIR 151050Z 31017KT CAVOK 27/16 Q1014 NOSIG
METAR LGKC 151050Z 05012KT CAVOK 26/17 Q1017
METAR LGKF 151050Z 27011KT 9999 FEW020 26/19 Q1015
METAR LGKL 151050Z 16009KT 9999 FEW025TCU SCT040 28/20 Q1015
METAR LGKO 151050Z 30015KT CAVOK 27/17 Q1010
METAR LGKP 151050Z 31028G38KT 9999 FEW018 26/18 Q1010
METAR LGKR 151050Z /////KT 9999 FEW015 28/17 Q1014 NOSIG
METAR LGKV 151050Z 21009KT 9999 FEW025 26/13 Q1015
METAR LGKZ 151050Z 14005KT 9999 FEW030 SCT080 26/09 Q1017
METAR LGLM 151050Z 04012KT CAVOK 25/13 Q1015
METAR LGLR 151050Z 00000KT 9999 FEW030 30/12 Q1014 BLU
METAR LGMK 151050Z /////KT CAVOK 25/15 Q1013
METAR LGMT 151050Z 33011KT CAVOK 26/16 Q1013
METAR LGNX 151050Z 35016G26KT 9999 FEW020 25/14 Q1013
METAR LGPA 151050Z 34019KT CAVOK 26/14 Q1013
METAR LGPZ 151050Z 25010KT 9999 FEW025 27/21 Q1015
METAR LGRP 151050Z 25016KT 9999 FEW018 27/18 Q1009 NOSIG
METAR LGRX 151050Z 27007KT 9999 FEW030 29/20 Q1015
METAR LGSA 151050Z 04008KT CAVOK 28/15 Q1014
METAR LGSK 151050Z 03004KT 9999 FEW025 26/14 Q1015
METAR LGSM 151050Z 02014KT CAVOK 29/18 Q1010
METAR LGSO 151050Z 34015KT CAVOK 28/08 Q1014
METAR LGSR 151050Z 36018KT CAVOK 25/17 Q1013
METAR LGSY 151050Z 01010KT CAVOK 25/11 Q1016 BLU
METAR LGTG 151050Z 05004KT 9999 FEW030 29/07 Q1015 BLU
METAR LGTS 151050Z 25005KT 9999 FEW020 29/13 Q1014 NOSIG
METAR LGZA 151050Z 14005KT 9999 FEW018 28/20 Q1015

--------------------------------------
TAF LGAD 151100Z 1512/1521 30010KT 9999 SCT020 BECMG 1518/1520 VRB03KT
TAF LGAL 151100Z 1512/1521 06012KT 9999 FEW025 BECMG 1513/1515 19010KT BECMG 1518/1520 08010KT
TAF LGAV 151100Z 1512/1612 04017KT 9999 FEW025 BECMG 1516/1518 VRB05KT BECMG 1606/1608 03010KT
TAF LGBL 151100Z 1512/1521 11012KT 9999 FEW025 BECMG 1518/1520 VRB03KT
TAF LGEL 151100Z 1512/1612 17010KT 9999 FEW025 BECMG 1517/1519 VRB05KT
TAF LGHI 151100Z 1512/1521 01013KT 9999 FEW025 TEMPO 1512/1516 01013G23KT
TAF LGIO 151100Z 1512/1521 VRB03KT 9999 FEW020 PROB40 TEMPO 1512/1517 7000 SHRA FEW018TCU SCT020 BKN080
TAF LGIR 151100Z 1512/1612 30018KT 9999 FEW025
TAF LGKC 151100Z 1512/1521 05017KT 9999 FEW015 BECMG 1513/1515 26013KT
TAF LGKF 151100Z 1512/1521 27010KT 9999 FEW020 PROB30 TEMPO 1512/1515 FEW018TCU SCT020
TAF LGKL 151100Z 1512/1521 16008KT 9999 SCT030 BECMG 1518/1520 VRB03KT
TAF LGKO 151100Z 1512/1612 33017KT 9999 FEW020 BECMG 1519/1521 33017G27KT
TAF LGKP 151100Z 1512/1521 32028G38KT 9999 FEW018 BECMG 1516/1518 32018G28KT
TAF LGKR 151100Z 1512/1612 VRB05KT 9999 FEW015
TAF LGKV 151100Z 1512/1612 22010KT 9999 FEW030 BECMG 1518/1520 VRB03KT BECMG 1606/1608 FEW030 SCT080 BECMG 1610/1612 16012KT PROB40 TEMPO 1610/1612 5000 TSRA FEW018CB SCT030 BKN080
TAF LGLM 151100Z 1512/1521 05015KT 9999 FEW025 TEMPO 1512/1516 05015G25KT
TAF LGLR 151100Z 1512/1521 10012KT 9999 FEW025 SCT080 BECMG 1518/1520 VRB03KT
TAF LGMK 151100Z 1512/1521 36025G35KT 9999 FEW012 BECMG 1516/1518 36017G27KT
TAF LGMT 151100Z 1512/1521 35016KT 9999 FEW020
TAF LGPZ 151100Z 1512/1612 27010KT 9999 FEW020 PROB30 1512/1517 FEW018TCU BKN025 BECMG 1518/1520 VRB03KT BECMG 1610/1612 27010KT
TAF LGRP 151100Z 1512/1612 25016KT 9999 FEW018 TEMPO 1512/1612 25017G27KT
TAF LGRX 151100Z 1512/1521 27010KT 9999 FEW025 BECMG 1518/1520 VRB03KT
TAF LGSA 151100Z 1512/1612 04012KT 9999 FEW025 BECMG 1516/1518 VRB05KT BECMG 1522/1524 28012KT
TAF LGSK 151100Z 1512/1521 03010KT 9999 FEW020 BECMG 1512/1514 12010KT
TAF LGSM 151100Z 1512/1521 01015KT 9999 FEW025 TEMPO 1512/1516 01015G25KT
TAF LGSR 151100Z 1512/1612 34020KT 9999 FEW025
TAF LGST 151100Z 1512/1521 30022G32KT 9999 FEW025
TAF LGSY 151100Z 1512/1521 36015KT 9999 FEW025
TAF LGTG 151100Z 1512/1521 36010KT 9999 FEW030
TAF LGTL 151100Z 1512/1521 01012KT 9999 FEW025
TAF LGTS 151100Z 1512/1612 15015KT 9999 FEW030 BECMG 1518/1520 VRB03KT BECMG 1604/1606 SCT030 BECMG 1610/1612 16012KT PROB40 TEMPO 1610/1612 7000 SHRA FEW018TCU SCT030
TAF LGZA 151100Z 1512/1521 15008KT 9999 SCT016TCU SCT020 BECMG 1512/1514 28010KT FEW018